sensor_id;sensor_type;location;lat;lon;timestamp;pressure;altitude;pressure_sealevel;temperature;humidity
31331;BME280;34067;39.548;-76.088;2023-07-20T00:00:45;101407.94;;;34.78;42.78
31331;BME280;34067;39.548;-76.088;2023-07-20T00:03:14;101414.17;;;34.92;42.80
31331;BME280;34067;39.548;-76.088;2023-07-20T00:05:43;101413.60;;;34.70;43.93
31331;BME280;34067;39.548;-76.088;2023-07-20T00:08:10;101411.96;;;34.36;44.23
31331;BME280;34067;39.548;-76.088;2023-07-20T00:10:39;101409.98;;;34.39;44.16
31331;BME280;34067;39.548;-76.088;2023-07-20T00:13:08;101410.29;;;33.69;46.13
31331;BME280;34067;39.548;-76.088;2023-07-20T00:15:35;101419.47;;;32.28;49.41
31331;BME280;34067;39.548;-76.088;2023-07-20T00:18:04;101420.93;;;31.98;51.75
31331;BME280;34067;39.548;-76.088;2023-07-20T00:20:31;101418.57;;;30.56;54.74
31331;BME280;34067;39.548;-76.088;2023-07-20T00:22:59;101416.14;;;31.87;54.09
31331;BME280;34067;39.548;-76.088;2023-07-20T00:25:27;101409.68;;;32.52;51.50
31331;BME280;34067;39.548;-76.088;2023-07-20T00:27:55;101409.52;;;32.34;51.03
31331;BME280;34067;39.548;-76.088;2023-07-20T00:30:23;101407.16;;;31.78;52.29
31331;BME280;34067;39.548;-76.088;2023-07-20T00:32:51;101405.27;;;30.85;54.89
31331;BME280;34067;39.548;-76.088;2023-07-20T00:35:20;101412.29;;;31.86;53.26
31331;BME280;34067;39.548;-76.088;2023-07-20T00:37:48;101415.21;;;31.65;54.25
31331;BME280;34067;39.548;-76.088;2023-07-20T00:40:16;101413.70;;;31.86;53.66
31331;BME280;34067;39.548;-76.088;2023-07-20T00:42:44;101411.03;;;31.80;53.14
31331;BME280;34067;39.548;-76.088;2023-07-20T00:45:12;101408.25;;;31.86;53.47
31331;BME280;34067;39.548;-76.088;2023-07-20T00:47:41;101409.84;;;31.71;54.52
31331;BME280;34067;39.548;-76.088;2023-07-20T00:50:09;101414.97;;;31.59;54.30
31331;BME280;34067;39.548;-76.088;2023-07-20T00:52:38;101417.13;;;30.37;56.53
31331;BME280;34067;39.548;-76.088;2023-07-20T00:55:08;101425.01;;;31.79;55.10
31331;BME280;34067;39.548;-76.088;2023-07-20T00:57:37;101429.10;;;30.90;56.43
31331;BME280;34067;39.548;-76.088;2023-07-20T01:00:06;101431.42;;;31.90;55.92
31331;BME280;34067;39.548;-76.088;2023-07-20T01:02:34;101428.06;;;31.79;55.19
31331;BME280;34067;39.548;-76.088;2023-07-20T01:05:03;101430.65;;;31.38;55.35
31331;BME280;34067;39.548;-76.088;2023-07-20T01:07:34;101442.45;;;31.46;56.01
31331;BME280;34067;39.548;-76.088;2023-07-20T01:10:08;101449.37;;;30.96;57.10
31331;BME280;34067;39.548;-76.088;2023-07-20T01:12:42;101444.99;;;31.57;58.07
31331;BME280;34067;39.548;-76.088;2023-07-20T01:15:10;101448.65;;;31.49;58.13
31331;BME280;34067;39.548;-76.088;2023-07-20T01:17:38;101449.14;;;31.09;56.91
31331;BME280;34067;39.548;-76.088;2023-07-20T01:20:07;101454.83;;;31.27;57.76
31331;BME280;34067;39.548;-76.088;2023-07-20T01:22:55;101466.78;;;30.73;60.16
31331;BME280;34067;39.548;-76.088;2023-07-20T01:25:42;101464.67;;;29.77;68.00
31331;BME280;34067;39.548;-76.088;2023-07-20T01:28:37;101469.49;;;26.77;80.33
31331;BME280;34067;39.548;-76.088;2023-07-20T01:31:18;101470.47;;;27.94;79.49
31331;BME280;34067;39.548;-76.088;2023-07-20T01:33:48;101468.56;;;29.22;75.11
31331;BME280;34067;39.548;-76.088;2023-07-20T01:36:18;101471.84;;;28.70;74.30
31331;BME280;34067;39.548;-76.088;2023-07-20T01:38:47;101478.80;;;27.66;74.81
31331;BME280;34067;39.548;-76.088;2023-07-20T01:41:15;101477.16;;;29.38;74.34
31331;BME280;34067;39.548;-76.088;2023-07-20T01:43:44;101490.94;;;27.90;76.65
31331;BME280;34067;39.548;-76.088;2023-07-20T01:46:12;101493.57;;;25.76;79.90
31331;BME280;34067;39.548;-76.088;2023-07-20T01:48:39;101502.65;;;24.99;88.93
31331;BME280;34067;39.548;-76.088;2023-07-20T01:51:07;101505.68;;;25.99;85.13
31331;BME280;34067;39.548;-76.088;2023-07-20T01:53:35;101497.32;;;26.76;77.95
31331;BME280;34067;39.548;-76.088;2023-07-20T01:56:04;101497.00;;;27.60;75.18
31331;BME280;34067;39.548;-76.088;2023-07-20T01:58:31;101498.29;;;25.45;79.43
31331;BME280;34067;39.548;-76.088;2023-07-20T02:01:00;101493.99;;;24.35;89.28
31331;BME280;34067;39.548;-76.088;2023-07-20T02:03:28;101492.21;;;24.44;89.94
31331;BME280;34067;39.548;-76.088;2023-07-20T02:05:56;101487.58;;;26.29;82.27
31331;BME280;34067;39.548;-76.088;2023-07-20T02:08:24;101496.02;;;27.37;79.59
31331;BME280;34067;39.548;-76.088;2023-07-20T02:10:52;101505.61;;;27.44;74.66
31331;BME280;34067;39.548;-76.088;2023-07-20T02:13:20;101519.18;;;27.91;72.50
31331;BME280;34067;39.548;-76.088;2023-07-20T02:15:48;101529.83;;;28.92;68.83
31331;BME280;34067;39.548;-76.088;2023-07-20T02:18:16;101539.22;;;29.30;66.93
31331;BME280;34067;39.548;-76.088;2023-07-20T02:20:44;101558.34;;;28.38;68.63
31331;BME280;34067;39.548;-76.088;2023-07-20T02:23:11;101547.64;;;28.37;68.87
31331;BME280;34067;39.548;-76.088;2023-07-20T02:25:40;101502.99;;;28.91;67.67
31331;BME280;34067;39.548;-76.088;2023-07-20T02:28:08;101482.66;;;29.35;66.03
31331;BME280;34067;39.548;-76.088;2023-07-20T02:30:38;101489.15;;;29.37;67.84
31331;BME280;34067;39.548;-76.088;2023-07-20T02:33:06;101489.58;;;29.36;69.07
31331;BME280;34067;39.548;-76.088;2023-07-20T02:35:34;101489.98;;;29.59;68.34
31331;BME280;34067;39.548;-76.088;2023-07-20T02:38:01;101513.81;;;29.75;68.04
31331;BME280;34067;39.548;-76.088;2023-07-20T02:40:30;101543.51;;;29.68;67.87
31331;BME280;34067;39.548;-76.088;2023-07-20T02:42:57;101554.17;;;29.55;68.52
31331;BME280;34067;39.548;-76.088;2023-07-20T02:45:25;101555.43;;;29.36;67.71
31331;BME280;34067;39.548;-76.088;2023-07-20T02:47:53;101550.89;;;29.34;69.42
31331;BME280;34067;39.548;-76.088;2023-07-20T02:50:21;101555.56;;;28.48;71.74
31331;BME280;34067;39.548;-76.088;2023-07-20T02:52:49;101561.40;;;28.41;70.86
31331;BME280;34067;39.548;-76.088;2023-07-20T02:55:17;101556.92;;;26.14;87.04
31331;BME280;34067;39.548;-76.088;2023-07-20T02:57:45;101563.80;;;24.84;92.39
31331;BME280;34067;39.548;-76.088;2023-07-20T03:00:14;101586.70;;;24.48;100.00
31331;BME280;34067;39.548;-76.088;2023-07-20T03:02:42;101610.97;;;24.91;99.96
31331;BME280;34067;39.548;-76.088;2023-07-20T03:05:10;101610.29;;;23.97;98.49
31331;BME280;34067;39.548;-76.088;2023-07-20T03:07:38;101602.23;;;24.24;98.96
31331;BME280;34067;39.548;-76.088;2023-07-20T03:10:07;101580.31;;;23.14;100.00
31331;BME280;34067;39.548;-76.088;2023-07-20T03:12:36;101560.06;;;24.38;96.01
31331;BME280;34067;39.548;-76.088;2023-07-20T03:15:04;101546.83;;;24.86;92.26
31331;BME280;34067;39.548;-76.088;2023-07-20T03:17:32;101540.02;;;25.89;88.12
31331;BME280;34067;39.548;-76.088;2023-07-20T03:20:00;101540.29;;;24.99;87.01
31331;BME280;34067;39.548;-76.088;2023-07-20T03:22:29;101546.07;;;24.82;86.64
31331;BME280;34067;39.548;-76.088;2023-07-20T03:24:56;101544.55;;;24.87;86.83
31331;BME280;34067;39.548;-76.088;2023-07-20T03:27:25;101550.39;;;26.07;84.58
31331;BME280;34067;39.548;-76.088;2023-07-20T03:29:53;101549.32;;;25.71;83.50
31331;BME280;34067;39.548;-76.088;2023-07-20T03:32:21;101537.38;;;25.70;81.59
31331;BME280;34067;39.548;-76.088;2023-07-20T03:34:48;101526.21;;;26.11;79.97
31331;BME280;34067;39.548;-76.088;2023-07-20T03:37:16;101527.36;;;26.94;77.55
31331;BME280;34067;39.548;-76.088;2023-07-20T03:39:44;101520.81;;;27.00;77.91
31331;BME280;34067;39.548;-76.088;2023-07-20T03:42:12;101507.86;;;25.63;78.00
31331;BME280;34067;39.548;-76.088;2023-07-20T03:44:39;101496.35;;;26.32;76.23
31331;BME280;34067;39.548;-76.088;2023-07-20T03:47:07;101494.72;;;26.73;74.64
31331;BME280;34067;39.548;-76.088;2023-07-20T03:49:35;101487.75;;;26.99;73.46
31331;BME280;34067;39.548;-76.088;2023-07-20T03:52:03;101478.10;;;26.97;73.95
31331;BME280;34067;39.548;-76.088;2023-07-20T03:54:31;101465.43;;;27.66;72.38
31331;BME280;34067;39.548;-76.088;2023-07-20T03:56:59;101463.30;;;27.41;72.09
31331;BME280;34067;39.548;-76.088;2023-07-20T03:59:27;101467.98;;;27.44;72.62
31331;BME280;34067;39.548;-76.088;2023-07-20T04:01:55;101478.33;;;27.79;70.67
31331;BME280;34067;39.548;-76.088;2023-07-20T04:04:23;101484.31;;;27.52;69.85
31331;BME280;34067;39.548;-76.088;2023-07-20T04:06:51;101482.25;;;27.62;69.28
31331;BME280;34067;39.548;-76.088;2023-07-20T04:09:18;101480.20;;;27.83;68.27
31331;BME280;34067;39.548;-76.088;2023-07-20T04:11:46;101481.05;;;27.49;68.29
31331;BME280;34067;39.548;-76.088;2023-07-20T04:14:14;101486.95;;;27.53;69.21
31331;BME280;34067;39.548;-76.088;2023-07-20T04:16:42;101490.62;;;27.51;68.21
31331;BME280;34067;39.548;-76.088;2023-07-20T04:19:09;101489.39;;;27.49;69.12
31331;BME280;34067;39.548;-76.088;2023-07-20T04:21:40;101487.80;;;27.76;68.90
31331;BME280;34067;39.548;-76.088;2023-07-20T04:24:09;101489.72;;;27.89;69.01
31331;BME280;34067;39.548;-76.088;2023-07-20T04:26:37;101488.99;;;27.19;70.01
31331;BME280;34067;39.548;-76.088;2023-07-20T04:29:05;101483.47;;;28.16;70.30
31331;BME280;34067;39.548;-76.088;2023-07-20T04:31:33;101479.02;;;27.20;70.74
31331;BME280;34067;39.548;-76.088;2023-07-20T04:34:01;101479.51;;;27.54;71.38
31331;BME280;34067;39.548;-76.088;2023-07-20T04:36:28;101476.82;;;27.24;71.59
31331;BME280;34067;39.548;-76.088;2023-07-20T04:38:57;101471.24;;;27.43;71.10
31331;BME280;34067;39.548;-76.088;2023-07-20T04:41:25;101460.88;;;27.35;72.12
31331;BME280;34067;39.548;-76.088;2023-07-20T04:43:53;101456.52;;;26.32;79.61
31331;BME280;34067;39.548;-76.088;2023-07-20T04:46:21;101470.60;;;24.83;89.67
31331;BME280;34067;39.548;-76.088;2023-07-20T04:48:49;101491.01;;;25.80;86.94
31331;BME280;34067;39.548;-76.088;2023-07-20T04:51:16;101496.91;;;26.32;82.39
31331;BME280;34067;39.548;-76.088;2023-07-20T04:53:45;101496.00;;;25.88;81.71
31331;BME280;34067;39.548;-76.088;2023-07-20T04:56:12;101500.41;;;25.82;83.25
31331;BME280;34067;39.548;-76.088;2023-07-20T04:58:40;101505.62;;;25.78;81.25
31331;BME280;34067;39.548;-76.088;2023-07-20T05:03:10;101493.13;;;26.08;78.80
31331;BME280;34067;39.548;-76.088;2023-07-20T05:05:38;101496.87;;;26.04;77.11
31331;BME280;34067;39.548;-76.088;2023-07-20T05:08:06;101494.15;;;25.78;78.22
31331;BME280;34067;39.548;-76.088;2023-07-20T05:10:34;101503.16;;;25.84;80.07
31331;BME280;34067;39.548;-76.088;2023-07-20T05:13:02;101494.53;;;26.35;78.04
31331;BME280;34067;39.548;-76.088;2023-07-20T05:15:32;101488.79;;;26.63;76.92
31331;BME280;34067;39.548;-76.088;2023-07-20T05:18:00;101492.73;;;26.43;76.81
31331;BME280;34067;39.548;-76.088;2023-07-20T05:20:28;101502.08;;;26.89;76.57
31331;BME280;34067;39.548;-76.088;2023-07-20T05:22:55;101512.43;;;25.83;78.31
31331;BME280;34067;39.548;-76.088;2023-07-20T05:25:24;101514.80;;;25.82;79.08
31331;BME280;34067;39.548;-76.088;2023-07-20T05:27:52;101510.24;;;24.88;84.37
31331;BME280;34067;39.548;-76.088;2023-07-20T05:30:20;101515.32;;;22.90;93.11
31331;BME280;34067;39.548;-76.088;2023-07-20T05:32:48;101510.39;;;23.11;97.98
31331;BME280;34067;39.548;-76.088;2023-07-20T05:35:16;101504.89;;;22.39;100.00
31331;BME280;34067;39.548;-76.088;2023-07-20T05:37:43;101503.51;;;23.60;100.00
31331;BME280;34067;39.548;-76.088;2023-07-20T05:40:13;101502.47;;;23.72;98.33
31331;BME280;34067;39.548;-76.088;2023-07-20T05:42:41;101497.82;;;23.74;93.90
31331;BME280;34067;39.548;-76.088;2023-07-20T05:45:09;101493.18;;;23.98;93.05
31331;BME280;34067;39.548;-76.088;2023-07-20T05:47:38;101491.08;;;24.63;90.67
31331;BME280;34067;39.548;-76.088;2023-07-20T05:50:06;101489.75;;;25.00;88.47
31331;BME280;34067;39.548;-76.088;2023-07-20T05:52:34;101487.07;;;25.21;85.73
31331;BME280;34067;39.548;-76.088;2023-07-20T05:55:02;101490.25;;;25.49;84.20
31331;BME280;34067;39.548;-76.088;2023-07-20T05:57:29;101494.95;;;25.31;84.74
31331;BME280;34067;39.548;-76.088;2023-07-20T05:59:57;101507.47;;;25.42;85.04
31331;BME280;34067;39.548;-76.088;2023-07-20T06:02:25;101512.84;;;24.89;84.72
31331;BME280;34067;39.548;-76.088;2023-07-20T06:04:53;101510.83;;;25.64;83.47
31331;BME280;34067;39.548;-76.088;2023-07-20T06:07:21;101511.91;;;25.88;82.54
31331;BME280;34067;39.548;-76.088;2023-07-20T06:09:48;101515.66;;;25.11;82.00
31331;BME280;34067;39.548;-76.088;2023-07-20T06:12:16;101507.42;;;25.30;82.51
31331;BME280;34067;39.548;-76.088;2023-07-20T06:14:43;101502.32;;;25.15;84.24
31331;BME280;34067;39.548;-76.088;2023-07-20T06:17:11;101508.25;;;25.23;85.03
31331;BME280;34067;39.548;-76.088;2023-07-20T06:19:39;101510.79;;;24.86;86.48
31331;BME280;34067;39.548;-76.088;2023-07-20T06:22:07;101508.90;;;25.18;85.28
31331;BME280;34067;39.548;-76.088;2023-07-20T06:24:35;101509.07;;;25.45;85.03
31331;BME280;34067;39.548;-76.088;2023-07-20T06:27:04;101497.03;;;25.69;82.87
31331;BME280;34067;39.548;-76.088;2023-07-20T06:29:32;101487.50;;;25.62;81.14
31331;BME280;34067;39.548;-76.088;2023-07-20T06:31:59;101481.93;;;25.48;83.29
31331;BME280;34067;39.548;-76.088;2023-07-20T06:34:27;101476.17;;;24.68;88.42
31331;BME280;34067;39.548;-76.088;2023-07-20T06:36:55;101466.55;;;25.34;84.13
31331;BME280;34067;39.548;-76.088;2023-07-20T06:39:23;101465.39;;;25.74;82.65
31331;BME280;34067;39.548;-76.088;2023-07-20T06:41:50;101469.36;;;25.76;80.94
31331;BME280;34067;39.548;-76.088;2023-07-20T06:44:18;101474.43;;;25.78;80.62
31331;BME280;34067;39.548;-76.088;2023-07-20T06:46:46;101474.41;;;25.48;81.11
31331;BME280;34067;39.548;-76.088;2023-07-20T06:49:24;101468.28;;;25.86;80.28
31331;BME280;34067;39.548;-76.088;2023-07-20T06:51:53;101471.23;;;25.69;81.09
31331;BME280;34067;39.548;-76.088;2023-07-20T06:54:21;101469.51;;;25.80;82.28
31331;BME280;34067;39.548;-76.088;2023-07-20T06:56:48;101474.66;;;26.08;82.11
31331;BME280;34067;39.548;-76.088;2023-07-20T06:59:16;101475.87;;;24.46;88.44
31331;BME280;34067;39.548;-76.088;2023-07-20T07:01:44;101479.75;;;24.90;86.93
31331;BME280;34067;39.548;-76.088;2023-07-20T07:04:12;101479.09;;;24.70;88.80
31331;BME280;34067;39.548;-76.088;2023-07-20T07:06:40;101476.87;;;24.27;92.96
31331;BME280;34067;39.548;-76.088;2023-07-20T07:09:09;101480.25;;;23.35;95.06
31331;BME280;34067;39.548;-76.088;2023-07-20T07:11:36;101477.66;;;23.61;94.66
31331;BME280;34067;39.548;-76.088;2023-07-20T07:14:04;101472.20;;;24.10;96.93
31331;BME280;34067;39.548;-76.088;2023-07-20T07:16:32;101471.86;;;23.67;100.00
31331;BME280;34067;39.548;-76.088;2023-07-20T07:19:00;101468.05;;;23.76;97.54
31331;BME280;34067;39.548;-76.088;2023-07-20T07:21:28;101458.09;;;24.02;99.47
31331;BME280;34067;39.548;-76.088;2023-07-20T07:23:55;101450.56;;;24.29;95.52
31331;BME280;34067;39.548;-76.088;2023-07-20T07:26:23;101446.57;;;24.01;93.43
31331;BME280;34067;39.548;-76.088;2023-07-20T07:28:51;101449.72;;;24.01;95.80
31331;BME280;34067;39.548;-76.088;2023-07-20T07:31:19;101446.46;;;24.31;93.01
31331;BME280;34067;39.548;-76.088;2023-07-20T07:33:47;101447.33;;;24.59;91.11
31331;BME280;34067;39.548;-76.088;2023-07-20T07:36:14;101440.73;;;23.58;95.94
31331;BME280;34067;39.548;-76.088;2023-07-20T07:38:42;101440.29;;;23.28;100.00
31331;BME280;34067;39.548;-76.088;2023-07-20T07:41:10;101436.24;;;22.61;100.00
31331;BME280;34067;39.548;-76.088;2023-07-20T07:43:38;101429.17;;;23.38;100.00
31331;BME280;34067;39.548;-76.088;2023-07-20T07:46:06;101424.72;;;24.35;100.00
31331;BME280;34067;39.548;-76.088;2023-07-20T07:48:34;101427.88;;;22.84;100.00
31331;BME280;34067;39.548;-76.088;2023-07-20T07:51:02;101418.39;;;22.21;100.00
31331;BME280;34067;39.548;-76.088;2023-07-20T07:53:30;101420.17;;;21.58;100.00
31331;BME280;34067;39.548;-76.088;2023-07-20T07:55:58;101421.91;;;21.81;100.00
31331;BME280;34067;39.548;-76.088;2023-07-20T07:58:26;101422.80;;;22.66;100.00
31331;BME280;34067;39.548;-76.088;2023-07-20T08:00:53;101422.70;;;22.56;100.00
31331;BME280;34067;39.548;-76.088;2023-07-20T08:03:21;101416.89;;;22.67;100.00
31331;BME280;34067;39.548;-76.088;2023-07-20T08:05:49;101416.33;;;22.63;100.00
31331;BME280;34067;39.548;-76.088;2023-07-20T08:08:18;101424.73;;;23.48;99.80
31331;BME280;34067;39.548;-76.088;2023-07-20T08:10:46;101429.56;;;22.99;98.24
31331;BME280;34067;39.548;-76.088;2023-07-20T08:13:14;101429.93;;;23.51;95.78
31331;BME280;34067;39.548;-76.088;2023-07-20T08:15:49;101426.72;;;23.61;97.33
31331;BME280;34067;39.548;-76.088;2023-07-20T08:18:18;101420.09;;;24.03;96.63
31331;BME280;34067;39.548;-76.088;2023-07-20T08:20:46;101421.36;;;23.58;97.33
31331;BME280;34067;39.548;-76.088;2023-07-20T08:23:14;101412.00;;;24.50;94.54
31331;BME280;34067;39.548;-76.088;2023-07-20T08:25:41;101414.51;;;23.98;92.40
31331;BME280;34067;39.548;-76.088;2023-07-20T08:28:09;101416.70;;;24.94;88.80
31331;BME280;34067;39.548;-76.088;2023-07-20T08:30:42;101420.84;;;25.37;86.34
31331;BME280;34067;39.548;-76.088;2023-07-20T08:33:12;101425.31;;;26.02;83.91
31331;BME280;34067;39.548;-76.088;2023-07-20T08:35:41;101419.60;;;25.32;86.31
31331;BME280;34067;39.548;-76.088;2023-07-20T08:38:09;101421.33;;;25.16;86.27
31331;BME280;34067;39.548;-76.088;2023-07-20T08:40:41;101423.53;;;25.49;84.60
31331;BME280;34067;39.548;-76.088;2023-07-20T08:43:11;101425.23;;;25.18;83.70
31331;BME280;34067;39.548;-76.088;2023-07-20T08:45:39;101427.20;;;25.44;84.01
31331;BME280;34067;39.548;-76.088;2023-07-20T08:48:08;101428.65;;;25.99;82.60
31331;BME280;34067;39.548;-76.088;2023-07-20T08:50:35;101433.96;;;25.67;81.40
31331;BME280;34067;39.548;-76.088;2023-07-20T08:53:03;101439.51;;;25.94;79.86
31331;BME280;34067;39.548;-76.088;2023-07-20T08:55:31;101440.61;;;25.33;81.06
31331;BME280;34067;39.548;-76.088;2023-07-20T08:58:00;101443.65;;;24.46;86.53
31331;BME280;34067;39.548;-76.088;2023-07-20T09:00:30;101445.52;;;24.55;88.05
31331;BME280;34067;39.548;-76.088;2023-07-20T09:02:58;101444.46;;;23.82;90.48
31331;BME280;34067;39.548;-76.088;2023-07-20T09:05:25;101443.35;;;24.63;89.30
31331;BME280;34067;39.548;-76.088;2023-07-20T09:07:53;101435.06;;;24.76;89.03
31331;BME280;34067;39.548;-76.088;2023-07-20T09:10:22;101436.49;;;24.75;89.71
31331;BME280;34067;39.548;-76.088;2023-07-20T09:12:51;101433.78;;;24.45;89.35
31331;BME280;34067;39.548;-76.088;2023-07-20T09:15:19;101435.30;;;23.97;92.60
31331;BME280;34067;39.548;-76.088;2023-07-20T09:17:48;101442.53;;;23.46;95.32
31331;BME280;34067;39.548;-76.088;2023-07-20T09:20:17;101437.65;;;24.76;96.56
31331;BME280;34067;39.548;-76.088;2023-07-20T09:22:45;101439.64;;;24.43;93.32
31331;BME280;34067;39.548;-76.088;2023-07-20T09:25:14;101437.17;;;24.99;89.75
31331;BME280;34067;39.548;-76.088;2023-07-20T09:27:44;101435.84;;;25.19;88.43
31331;BME280;34067;39.548;-76.088;2023-07-20T09:30:13;101434.75;;;23.98;88.53
31331;BME280;34067;39.548;-76.088;2023-07-20T09:32:43;101433.48;;;25.32;87.13
31331;BME280;34067;39.548;-76.088;2023-07-20T09:35:16;101429.49;;;25.05;86.74
31331;BME280;34067;39.548;-76.088;2023-07-20T09:37:48;101426.65;;;25.36;85.79
31331;BME280;34067;39.548;-76.088;2023-07-20T09:40:16;101419.96;;;25.70;82.44
31331;BME280;34067;39.548;-76.088;2023-07-20T09:42:44;101421.46;;;25.33;82.69
31331;BME280;34067;39.548;-76.088;2023-07-20T09:45:12;101425.12;;;25.71;82.28
31331;BME280;34067;39.548;-76.088;2023-07-20T09:47:40;101432.12;;;25.19;82.12
31331;BME280;34067;39.548;-76.088;2023-07-20T09:50:09;101435.65;;;25.98;80.67
31331;BME280;34067;39.548;-76.088;2023-07-20T09:52:39;101437.44;;;25.96;79.12
31331;BME280;34067;39.548;-76.088;2023-07-20T09:55:08;101443.11;;;25.60;78.17
31331;BME280;34067;39.548;-76.088;2023-07-20T09:57:36;101453.21;;;25.72;78.53
31331;BME280;34067;39.548;-76.088;2023-07-20T10:00:05;101451.13;;;25.67;78.51
31331;BME280;34067;39.548;-76.088;2023-07-20T10:02:34;101454.24;;;26.08;77.50
31331;BME280;34067;39.548;-76.088;2023-07-20T10:05:04;101454.85;;;25.94;77.70
31331;BME280;34067;39.548;-76.088;2023-07-20T10:07:34;101459.43;;;25.73;77.93
31331;BME280;34067;39.548;-76.088;2023-07-20T10:10:03;101465.60;;;25.60;80.16
31331;BME280;34067;39.548;-76.088;2023-07-20T10:12:31;101472.71;;;25.05;82.71
31331;BME280;34067;39.548;-76.088;2023-07-20T10:15:10;101474.76;;;24.21;86.59
31331;BME280;34067;39.548;-76.088;2023-07-20T10:17:45;101482.86;;;23.37;93.83
31331;BME280;34067;39.548;-76.088;2023-07-20T10:20:16;101479.59;;;24.26;92.64
31331;BME280;34067;39.548;-76.088;2023-07-20T10:22:44;101485.78;;;24.14;94.68
31331;BME280;34067;39.548;-76.088;2023-07-20T10:25:15;101485.38;;;24.30;92.78
31331;BME280;34067;39.548;-76.088;2023-07-20T10:27:43;101489.33;;;24.01;94.24
31331;BME280;34067;39.548;-76.088;2023-07-20T10:30:11;101492.69;;;22.68;96.30
31331;BME280;34067;39.548;-76.088;2023-07-20T10:32:41;101491.31;;;23.89;93.29
31331;BME280;34067;39.548;-76.088;2023-07-20T10:35:14;101494.22;;;24.19;91.85
31331;BME280;34067;39.548;-76.088;2023-07-20T10:37:51;101495.35;;;23.18;93.29
31331;BME280;34067;39.548;-76.088;2023-07-20T10:40:27;101500.56;;;24.63;89.06
31331;BME280;34067;39.548;-76.088;2023-07-20T10:43:03;101501.79;;;24.47;87.63
31331;BME280;34067;39.548;-76.088;2023-07-20T10:45:37;101507.55;;;24.02;90.71
31331;BME280;34067;39.548;-76.088;2023-07-20T10:48:13;101509.94;;;23.22;97.45
31331;BME280;34067;39.548;-76.088;2023-07-20T10:50:42;101509.70;;;23.16;99.25
31331;BME280;34067;39.548;-76.088;2023-07-20T10:53:13;101509.21;;;22.71;100.00
31331;BME280;34067;39.548;-76.088;2023-07-20T10:55:41;101507.88;;;23.94;96.64
31331;BME280;34067;39.548;-76.088;2023-07-20T10:58:11;101508.47;;;23.84;96.40
31331;BME280;34067;39.548;-76.088;2023-07-20T11:00:56;101501.74;;;22.85;100.00
31331;BME280;34067;39.548;-76.088;2023-07-20T11:03:29;101505.83;;;23.32;100.00
31331;BME280;34067;39.548;-76.088;2023-07-20T11:05:58;101513.89;;;23.25;100.00
31331;BME280;34067;39.548;-76.088;2023-07-20T11:08:42;101513.36;;;23.47;99.39
31331;BME280;34067;39.548;-76.088;2023-07-20T11:11:28;101522.48;;;22.95;100.00
31331;BME280;34067;39.548;-76.088;2023-07-20T11:13:58;101529.14;;;22.37;100.00
31331;BME280;34067;39.548;-76.088;2023-07-20T11:16:38;101517.05;;;23.50;100.00
31331;BME280;34067;39.548;-76.088;2023-07-20T11:19:16;101525.51;;;23.06;100.00
31331;BME280;34067;39.548;-76.088;2023-07-20T11:21:45;101525.39;;;24.42;99.33
31331;BME280;34067;39.548;-76.088;2023-07-20T11:24:13;101526.86;;;23.98;96.82
31331;BME280;34067;39.548;-76.088;2023-07-20T11:26:44;101526.98;;;24.04;97.14
31331;BME280;34067;39.548;-76.088;2023-07-20T11:29:12;101532.17;;;22.50;100.00
31331;BME280;34067;39.548;-76.088;2023-07-20T11:31:41;101534.56;;;23.10;100.00
31331;BME280;34067;39.548;-76.088;2023-07-20T11:34:13;101534.80;;;23.85;100.00
31331;BME280;34067;39.548;-76.088;2023-07-20T11:36:42;101541.47;;;23.41;100.00
31331;BME280;34067;39.548;-76.088;2023-07-20T11:39:12;101539.31;;;23.00;100.00
31331;BME280;34067;39.548;-76.088;2023-07-20T11:41:46;101538.88;;;23.24;100.00
31331;BME280;34067;39.548;-76.088;2023-07-20T11:44:15;101541.38;;;23.82;100.00
31331;BME280;34067;39.548;-76.088;2023-07-20T11:46:44;101539.40;;;24.03;98.69
31331;BME280;34067;39.548;-76.088;2023-07-20T11:49:12;101536.61;;;23.63;100.00
31331;BME280;34067;39.548;-76.088;2023-07-20T11:51:40;101533.29;;;23.80;100.00
31331;BME280;34067;39.548;-76.088;2023-07-20T11:54:09;101526.57;;;24.74;97.06
31331;BME280;34067;39.548;-76.088;2023-07-20T11:56:37;101531.54;;;24.47;97.93
31331;BME280;34067;39.548;-76.088;2023-07-20T11:59:09;101534.94;;;23.50;100.00
31331;BME280;34067;39.548;-76.088;2023-07-20T12:01:37;101534.97;;;23.03;100.00
31331;BME280;34067;39.548;-76.088;2023-07-20T12:04:04;101534.34;;;24.42;100.00
31331;BME280;34067;39.548;-76.088;2023-07-20T12:06:33;101533.48;;;22.90;100.00
31331;BME280;34067;39.548;-76.088;2023-07-20T12:09:01;101536.38;;;23.28;100.00
31331;BME280;34067;39.548;-76.088;2023-07-20T12:11:33;101533.14;;;23.43;100.00
31331;BME280;34067;39.548;-76.088;2023-07-20T12:14:02;101531.18;;;23.99;100.00
31331;BME280;34067;39.548;-76.088;2023-07-20T12:16:31;101530.09;;;22.71;100.00
31331;BME280;34067;39.548;-76.088;2023-07-20T12:19:01;101525.45;;;23.24;100.00
31331;BME280;34067;39.548;-76.088;2023-07-20T12:21:30;101522.62;;;24.06;100.00
31331;BME280;34067;39.548;-76.088;2023-07-20T12:23:58;101520.35;;;23.55;100.00
31331;BME280;34067;39.548;-76.088;2023-07-20T12:26:26;101519.07;;;23.60;100.00
31331;BME280;34067;39.548;-76.088;2023-07-20T12:28:56;101522.64;;;23.67;100.00
31331;BME280;34067;39.548;-76.088;2023-07-20T12:31:26;101519.66;;;24.94;100.00
31331;BME280;34067;39.548;-76.088;2023-07-20T12:33:55;101528.55;;;23.78;100.00
31331;BME280;34067;39.548;-76.088;2023-07-20T12:36:24;101516.24;;;23.93;100.00
31331;BME280;34067;39.548;-76.088;2023-07-20T12:38:52;101517.88;;;23.83;100.00